sensor_id;sensor_type;location;lat;lon;timestamp;temperature;humidity
24232;DHT22;12364;47.810;8.810;2022-08-04T03:53:11;23.30;74.20
24232;DHT22;12364;47.810;8.810;2022-08-04T03:58:42;23.20;74.20
24232;DHT22;12364;47.810;8.810;2022-08-04T04:15:07;23.10;74.80
24232;DHT22;12364;47.810;8.810;2022-08-04T04:30:56;23.10;74.90
24232;DHT22;12364;47.810;8.810;2022-08-04T04:38:51;23.10;75.50
24232;DHT22;12364;47.810;8.810;2022-08-04T04:52:52;23.10;75.00
24232;DHT22;12364;47.810;8.810;2022-08-04T04:55:22;23.20;75.00
24232;DHT22;12364;47.810;8.810;2022-08-04T04:57:50;23.20;75.00
24232;DHT22;12364;47.810;8.810;2022-08-04T05:00:22;23.20;74.90
24232;DHT22;12364;47.810;8.810;2022-08-04T05:13:36;23.40;74.60
24232;DHT22;12364;47.810;8.810;2022-08-04T05:19:02;23.50;74.70
24232;DHT22;12364;47.810;8.810;2022-08-04T05:21:47;23.40;74.70
24232;DHT22;12364;47.810;8.810;2022-08-04T05:24:17;23.50;74.60
24232;DHT22;12364;47.810;8.810;2022-08-04T05:26:45;23.50;74.80
24232;DHT22;12364;47.810;8.810;2022-08-04T05:29:17;23.50;74.80
24232;DHT22;12364;47.810;8.810;2022-08-04T05:31:48;23.50;75.00
24232;DHT22;12364;47.810;8.810;2022-08-04T05:34:19;23.50;74.90
24232;DHT22;12364;47.810;8.810;2022-08-04T05:36:52;23.60;75.00
24232;DHT22;12364;47.810;8.810;2022-08-04T05:39:21;23.60;74.90
24232;DHT22;12364;47.810;8.810;2022-08-04T05:41:49;23.60;74.80
24232;DHT22;12364;47.810;8.810;2022-08-04T05:44:21;23.60;75.10
24232;DHT22;12364;47.810;8.810;2022-08-04T05:46:52;23.70;75.40
24232;DHT22;12364;47.810;8.810;2022-08-04T05:49:21;23.70;75.50
24232;DHT22;12364;47.810;8.810;2022-08-04T05:51:48;23.80;75.60
24232;DHT22;12364;47.810;8.810;2022-08-04T05:54:16;23.90;75.50
24232;DHT22;12364;47.810;8.810;2022-08-04T05:56:44;23.90;75.10
24232;DHT22;12364;47.810;8.810;2022-08-04T05:59:11;23.90;75.30
24232;DHT22;12364;47.810;8.810;2022-08-04T06:01:39;24.00;75.10
24232;DHT22;12364;47.810;8.810;2022-08-04T06:04:22;24.00;74.90
24232;DHT22;12364;47.810;8.810;2022-08-04T06:06:50;24.10;75.00
24232;DHT22;12364;47.810;8.810;2022-08-04T06:09:18;24.20;74.70
24232;DHT22;12364;47.810;8.810;2022-08-04T06:11:45;24.20;74.60
24232;DHT22;12364;47.810;8.810;2022-08-04T06:14:34;24.30;74.70
24232;DHT22;12364;47.810;8.810;2022-08-04T06:17:04;24.40;74.60
24232;DHT22;12364;47.810;8.810;2022-08-04T06:19:52;24.50;74.50
24232;DHT22;12364;47.810;8.810;2022-08-04T06:22:40;24.50;74.30
24232;DHT22;12364;47.810;8.810;2022-08-04T06:25:09;24.70;74.90
24232;DHT22;12364;47.810;8.810;2022-08-04T06:27:39;24.70;75.50
24232;DHT22;12364;47.810;8.810;2022-08-04T06:30:07;24.90;75.50
24232;DHT22;12364;47.810;8.810;2022-08-04T06:32:42;24.90;75.70
24232;DHT22;12364;47.810;8.810;2022-08-04T06:35:16;25.00;75.10
24232;DHT22;12364;47.810;8.810;2022-08-04T06:37:44;25.10;74.70
24232;DHT22;12364;47.810;8.810;2022-08-04T06:40:12;25.20;75.10
24232;DHT22;12364;47.810;8.810;2022-08-04T06:42:56;25.30;76.10
24232;DHT22;12364;47.810;8.810;2022-08-04T06:45:23;25.40;75.60
24232;DHT22;12364;47.810;8.810;2022-08-04T06:47:50;25.50;74.70
24232;DHT22;12364;47.810;8.810;2022-08-04T06:50:19;25.50;74.50
24232;DHT22;12364;47.810;8.810;2022-08-04T06:53:06;25.60;74.30
24232;DHT22;12364;47.810;8.810;2022-08-04T06:55:33;25.70;73.60
24232;DHT22;12364;47.810;8.810;2022-08-04T06:58:01;25.70;73.30
24232;DHT22;12364;47.810;8.810;2022-08-04T07:00:29;25.80;72.90
24232;DHT22;12364;47.810;8.810;2022-08-04T07:02:57;25.90;71.20
24232;DHT22;12364;47.810;8.810;2022-08-04T07:05:25;25.90;70.70
24232;DHT22;12364;47.810;8.810;2022-08-04T07:07:52;26.00;70.00
24232;DHT22;12364;47.810;8.810;2022-08-04T07:10:25;26.10;67.30
24232;DHT22;12364;47.810;8.810;2022-08-04T07:12:55;26.10;67.80
24232;DHT22;12364;47.810;8.810;2022-08-04T07:15:22;26.20;68.00
24232;DHT22;12364;47.810;8.810;2022-08-04T07:17:50;26.20;68.60
24232;DHT22;12364;47.810;8.810;2022-08-04T07:20:18;26.30;69.40
24232;DHT22;12364;47.810;8.810;2022-08-04T07:23:02;26.30;69.30
24232;DHT22;12364;47.810;8.810;2022-08-04T07:25:30;26.30;68.30
24232;DHT22;12364;47.810;8.810;2022-08-04T07:28:17;26.40;68.70
24232;DHT22;12364;47.810;8.810;2022-08-04T07:30:44;26.40;69.10
24232;DHT22;12364;47.810;8.810;2022-08-04T07:33:13;26.50;68.80
24232;DHT22;12364;47.810;8.810;2022-08-04T07:35:40;26.60;68.70
24232;DHT22;12364;47.810;8.810;2022-08-04T07:38:28;26.60;68.70
24232;DHT22;12364;47.810;8.810;2022-08-04T07:40:55;26.70;68.60
24232;DHT22;12364;47.810;8.810;2022-08-04T07:43:22;26.70;68.60
24232;DHT22;12364;47.810;8.810;2022-08-04T07:45:49;26.80;68.70
24232;DHT22;12364;47.810;8.810;2022-08-04T07:48:16;26.80;68.90
24232;DHT22;12364;47.810;8.810;2022-08-04T07:50:44;26.90;69.20
24232;DHT22;12364;47.810;8.810;2022-08-04T07:53:12;27.00;69.40
24232;DHT22;12364;47.810;8.810;2022-08-04T07:56:00;27.00;69.20
24232;DHT22;12364;47.810;8.810;2022-08-04T07:58:27;27.10;69.90
24232;DHT22;12364;47.810;8.810;2022-08-04T08:00:56;27.20;69.20
24232;DHT22;12364;47.810;8.810;2022-08-04T08:03:24;27.20;69.40
24232;DHT22;12364;47.810;8.810;2022-08-04T08:05:51;27.20;69.30
24232;DHT22;12364;47.810;8.810;2022-08-04T08:08:38;27.30;70.10
24232;DHT22;12364;47.810;8.810;2022-08-04T08:11:06;27.40;69.30
24232;DHT22;12364;47.810;8.810;2022-08-04T08:13:34;27.40;69.90
24232;DHT22;12364;47.810;8.810;2022-08-04T08:16:01;27.50;70.00
24232;DHT22;12364;47.810;8.810;2022-08-04T08:18:29;27.50;69.70
24232;DHT22;12364;47.810;8.810;2022-08-04T08:20:56;27.60;70.70
24232;DHT22;12364;47.810;8.810;2022-08-04T08:23:24;27.70;70.60
24232;DHT22;12364;47.810;8.810;2022-08-04T08:25:51;27.80;70.00
24232;DHT22;12364;47.810;8.810;2022-08-04T08:28:18;27.90;69.70
24232;DHT22;12364;47.810;8.810;2022-08-04T08:30:45;27.90;70.00
24232;DHT22;12364;47.810;8.810;2022-08-04T08:33:18;27.90;70.80
24232;DHT22;12364;47.810;8.810;2022-08-04T08:38:26;28.10;70.20
24232;DHT22;12364;47.810;8.810;2022-08-04T08:41:12;28.10;70.10
24232;DHT22;12364;47.810;8.810;2022-08-04T08:55:48;28.30;69.40
24232;DHT22;12364;47.810;8.810;2022-08-04T08:58:02;28.40;70.20
24232;DHT22;12364;47.810;8.810;2022-08-04T09:03:26;28.40;68.70
24232;DHT22;12364;47.810;8.810;2022-08-04T09:08:54;28.60;69.20
24232;DHT22;12364;47.810;8.810;2022-08-04T09:11:27;28.60;69.10
24232;DHT22;12364;47.810;8.810;2022-08-04T09:13:55;28.70;68.60
24232;DHT22;12364;47.810;8.810;2022-08-04T09:16:31;28.80;68.80
24232;DHT22;12364;47.810;8.810;2022-08-04T09:19:07;28.90;68.50
24232;DHT22;12364;47.810;8.810;2022-08-04T09:22:10;29.00;68.30
24232;DHT22;12364;47.810;8.810;2022-08-04T09:24:47;29.00;67.90
24232;DHT22;12364;47.810;8.810;2022-08-04T09:27:20;29.00;67.80
24232;DHT22;12364;47.810;8.810;2022-08-04T09:30:06;29.20;67.70
24232;DHT22;12364;47.810;8.810;2022-08-04T09:32:54;29.20;67.30
24232;DHT22;12364;47.810;8.810;2022-08-04T09:40:25;29.40;66.70
24232;DHT22;12364;47.810;8.810;2022-08-04T09:43:30;29.30;66.50
24232;DHT22;12364;47.810;8.810;2022-08-04T09:49:09;29.40;66.00
24232;DHT22;12364;47.810;8.810;2022-08-04T09:59:57;29.60;65.70
24232;DHT22;12364;47.810;8.810;2022-08-04T10:02:29;29.70;65.70
24232;DHT22;12364;47.810;8.810;2022-08-04T10:04:57;29.80;65.30
24232;DHT22;12364;47.810;8.810;2022-08-04T10:28:40;30.30;63.20
24232;DHT22;12364;47.810;8.810;2022-08-04T10:31:09;30.30;62.60
24232;DHT22;12364;47.810;8.810;2022-08-04T10:33:44;30.40;62.80
24232;DHT22;12364;47.810;8.810;2022-08-04T10:36:14;30.50;62.70
24232;DHT22;12364;47.810;8.810;2022-08-04T10:38:56;30.40;62.60
24232;DHT22;12364;47.810;8.810;2022-08-04T10:41:33;30.50;62.70
24232;DHT22;12364;47.810;8.810;2022-08-04T10:46:52;30.50;62.00
24232;DHT22;12364;47.810;8.810;2022-08-04T10:54:43;30.60;61.40
24232;DHT22;12364;47.810;8.810;2022-08-04T10:57:17;30.70;60.60
24232;DHT22;12364;47.810;8.810;2022-08-04T11:05:19;31.00;59.10
24232;DHT22;12364;47.810;8.810;2022-08-04T11:07:44;31.20;59.20
24232;DHT22;12364;47.810;8.810;2022-08-04T11:10:11;31.20;58.50
24232;DHT22;12364;47.810;8.810;2022-08-04T11:12:39;31.30;58.60
24232;DHT22;12364;47.810;8.810;2022-08-04T11:15:10;31.40;58.90
24232;DHT22;12364;47.810;8.810;2022-08-04T11:17:39;31.40;58.30
24232;DHT22;12364;47.810;8.810;2022-08-04T11:20:19;31.50;57.30
24232;DHT22;12364;47.810;8.810;2022-08-04T11:23:07;31.50;57.40
24232;DHT22;12364;47.810;8.810;2022-08-04T11:28:22;31.50;57.40
24232;DHT22;12364;47.810;8.810;2022-08-04T11:31:07;31.50;57.50
24232;DHT22;12364;47.810;8.810;2022-08-04T11:33:42;31.50;57.00
24232;DHT22;12364;47.810;8.810;2022-08-04T11:36:14;31.60;56.10
24232;DHT22;12364;47.810;8.810;2022-08-04T11:38:52;31.70;56.10
24232;DHT22;12364;47.810;8.810;2022-08-04T11:41:31;31.70;55.50
24232;DHT22;12364;47.810;8.810;2022-08-04T11:44:01;31.80;54.50
24232;DHT22;12364;47.810;8.810;2022-08-04T11:46:38;31.80;54.70
24232;DHT22;12364;47.810;8.810;2022-08-04T11:49:07;31.90;54.90
24232;DHT22;12364;47.810;8.810;2022-08-04T11:51:37;31.90;54.30
24232;DHT22;12364;47.810;8.810;2022-08-04T11:54:05;32.00;53.40
24232;DHT22;12364;47.810;8.810;2022-08-04T11:56:33;32.00;53.60
24232;DHT22;12364;47.810;8.810;2022-08-04T11:59:03;32.00;53.90
24232;DHT22;12364;47.810;8.810;2022-08-04T12:01:34;32.10;53.70
24232;DHT22;12364;47.810;8.810;2022-08-04T12:04:11;32.10;54.40
24232;DHT22;12364;47.810;8.810;2022-08-04T12:06:55;32.10;54.20
24232;DHT22;12364;47.810;8.810;2022-08-04T12:12:41;32.20;53.80
24232;DHT22;12364;47.810;8.810;2022-08-04T12:17:45;32.30;51.70
24232;DHT22;12364;47.810;8.810;2022-08-04T12:20:20;32.40;53.10
24232;DHT22;12364;47.810;8.810;2022-08-04T12:23:11;32.40;52.30
24232;DHT22;12364;47.810;8.810;2022-08-04T12:25:42;32.40;50.90
24232;DHT22;12364;47.810;8.810;2022-08-04T12:28:11;32.50;52.00
24232;DHT22;12364;47.810;8.810;2022-08-04T12:30:41;32.50;50.70
24232;DHT22;12364;47.810;8.810;2022-08-04T12:33:37;32.60;50.60
24232;DHT22;12364;47.810;8.810;2022-08-04T12:39:00;32.80;52.30
24232;DHT22;12364;47.810;8.810;2022-08-04T12:41:31;32.80;52.30
24232;DHT22;12364;47.810;8.810;2022-08-04T12:44:05;32.90;50.10
24232;DHT22;12364;47.810;8.810;2022-08-04T12:46:53;32.90;51.50
24232;DHT22;12364;47.810;8.810;2022-08-04T12:49:41;33.00;51.60
24232;DHT22;12364;47.810;8.810;2022-08-04T12:52:19;33.00;50.60
24232;DHT22;12364;47.810;8.810;2022-08-04T12:54:50;33.00;51.30
24232;DHT22;12364;47.810;8.810;2022-08-04T12:57:17;33.00;48.30
24232;DHT22;12364;47.810;8.810;2022-08-04T12:59:46;33.00;48.70
24232;DHT22;12364;47.810;8.810;2022-08-04T13:02:24;33.00;48.70
24232;DHT22;12364;47.810;8.810;2022-08-04T13:04:53;33.10;49.60
24232;DHT22;12364;47.810;8.810;2022-08-04T13:07:22;33.10;49.20
24232;DHT22;12364;47.810;8.810;2022-08-04T13:09:51;33.10;50.30
24232;DHT22;12364;47.810;8.810;2022-08-04T13:12:23;33.10;49.80
24232;DHT22;12364;47.810;8.810;2022-08-04T13:14:58;33.10;45.70
24232;DHT22;12364;47.810;8.810;2022-08-04T13:20:30;33.30;44.70
24232;DHT22;12364;47.810;8.810;2022-08-04T13:25:36;33.70;44.10
24232;DHT22;12364;47.810;8.810;2022-08-04T13:28:26;33.70;46.00
24232;DHT22;12364;47.810;8.810;2022-08-04T13:30:55;33.80;44.20
24232;DHT22;12364;47.810;8.810;2022-08-04T13:33:27;33.90;44.50
24232;DHT22;12364;47.810;8.810;2022-08-04T13:35:55;34.00;44.80
24232;DHT22;12364;47.810;8.810;2022-08-04T13:38:22;34.00;45.70
24232;DHT22;12364;47.810;8.810;2022-08-04T13:40:50;34.00;47.30
24232;DHT22;12364;47.810;8.810;2022-08-04T13:43:22;33.90;45.80
24232;DHT22;12364;47.810;8.810;2022-08-04T13:46:12;33.90;45.10
24232;DHT22;12364;47.810;8.810;2022-08-04T13:48:53;33.90;42.70
24232;DHT22;12364;47.810;8.810;2022-08-04T13:51:41;34.00;43.70
24232;DHT22;12364;47.810;8.810;2022-08-04T13:54:25;34.00;42.80
24232;DHT22;12364;47.810;8.810;2022-08-04T13:56:57;33.90;41.30
24232;DHT22;12364;47.810;8.810;2022-08-04T13:59:26;33.90;42.50
24232;DHT22;12364;47.810;8.810;2022-08-04T14:02:00;33.90;44.80
24232;DHT22;12364;47.810;8.810;2022-08-04T14:04:28;34.00;42.10
24232;DHT22;12364;47.810;8.810;2022-08-04T14:06:58;34.00;44.90
24232;DHT22;12364;47.810;8.810;2022-08-04T14:09:28;33.90;41.50
24232;DHT22;12364;47.810;8.810;2022-08-04T14:12:11;33.90;41.80
24232;DHT22;12364;47.810;8.810;2022-08-04T14:14:58;33.90;43.30
24232;DHT22;12364;47.810;8.810;2022-08-04T14:17:25;33.90;44.80
24232;DHT22;12364;47.810;8.810;2022-08-04T14:19:57;33.80;40.60
24232;DHT22;12364;47.810;8.810;2022-08-04T14:27:21;34.00;39.50
24232;DHT22;12364;47.810;8.810;2022-08-04T14:29:49;34.10;37.50
24232;DHT22;12364;47.810;8.810;2022-08-04T14:32:16;34.20;37.70
24232;DHT22;12364;47.810;8.810;2022-08-04T14:34:51;34.30;39.20
24232;DHT22;12364;47.810;8.810;2022-08-04T14:37:18;34.40;40.90
24232;DHT22;12364;47.810;8.810;2022-08-04T14:39:49;34.40;40.70
24232;DHT22;12364;47.810;8.810;2022-08-04T14:42:40;34.50;40.40
24232;DHT22;12364;47.810;8.810;2022-08-04T14:45:07;34.40;39.60
24232;DHT22;12364;47.810;8.810;2022-08-04T14:47:41;34.50;39.20
24232;DHT22;12364;47.810;8.810;2022-08-04T14:50:18;34.50;39.00
24232;DHT22;12364;47.810;8.810;2022-08-04T14:52:46;34.60;39.40
24232;DHT22;12364;47.810;8.810;2022-08-04T14:55:17;34.60;38.90
24232;DHT22;12364;47.810;8.810;2022-08-04T14:57:44;34.60;40.60
24232;DHT22;12364;47.810;8.810;2022-08-04T15:00:33;34.60;44.10
24232;DHT22;12364;47.810;8.810;2022-08-04T15:03:02;34.50;40.50
24232;DHT22;12364;47.810;8.810;2022-08-04T15:05:29;34.50;41.50
24232;DHT22;12364;47.810;8.810;2022-08-04T15:08:17;34.50;39.80
24232;DHT22;12364;47.810;8.810;2022-08-04T15:10:44;34.40;38.90
24232;DHT22;12364;47.810;8.810;2022-08-04T15:13:11;34.50;38.00
24232;DHT22;12364;47.810;8.810;2022-08-04T15:15:40;34.50;41.30
24232;DHT22;12364;47.810;8.810;2022-08-04T15:18:11;34.60;42.80
24232;DHT22;12364;47.810;8.810;2022-08-04T15:20:38;34.60;40.50
24232;DHT22;12364;47.810;8.810;2022-08-04T15:23:06;34.60;42.40
24232;DHT22;12364;47.810;8.810;2022-08-04T15:25:41;34.60;40.70
24232;DHT22;12364;47.810;8.810;2022-08-04T15:28:10;34.60;39.50
24232;DHT22;12364;47.810;8.810;2022-08-04T15:30:39;34.60;38.90
24232;DHT22;12364;47.810;8.810;2022-08-04T15:33:06;34.60;40.20
24232;DHT22;12364;47.810;8.810;2022-08-04T15:35:48;34.70;37.30
24232;DHT22;12364;47.810;8.810;2022-08-04T15:38:27;34.70;41.80
24232;DHT22;12364;47.810;8.810;2022-08-04T15:46:30;34.60;38.90
24232;DHT22;12364;47.810;8.810;2022-08-04T15:49:20;34.80;38.60
24232;DHT22;12364;47.810;8.810;2022-08-04T15:54:38;34.80;39.30
24232;DHT22;12364;47.810;8.810;2022-08-04T15:57:08;34.70;36.00
24232;DHT22;12364;47.810;8.810;2022-08-04T16:13:03;34.90;36.10
24232;DHT22;12364;47.810;8.810;2022-08-04T16:18:10;34.90;37.10
24232;DHT22;12364;47.810;8.810;2022-08-04T16:20:53;34.90;35.20
24232;DHT22;12364;47.810;8.810;2022-08-04T16:26:07;35.00;38.00
24232;DHT22;12364;47.810;8.810;2022-08-04T16:31:06;35.00;37.20
24232;DHT22;12364;47.810;8.810;2022-08-04T16:33:33;35.00;38.30
24232;DHT22;12364;47.810;8.810;2022-08-04T16:36:12;35.00;37.80
24232;DHT22;12364;47.810;8.810;2022-08-04T16:38:59;35.10;38.80
24232;DHT22;12364;47.810;8.810;2022-08-04T16:41:40;35.30;36.50
24232;DHT22;12364;47.810;8.810;2022-08-04T16:47:13;35.40;38.00
24232;DHT22;12364;47.810;8.810;2022-08-04T16:50:04;35.60;35.10
24232;DHT22;12364;47.810;8.810;2022-08-04T16:52:31;37.70;33.10
24232;DHT22;12364;47.810;8.810;2022-08-04T16:54:58;40.70;33.50
24232;DHT22;12364;47.810;8.810;2022-08-04T16:57:25;41.40;29.70
24232;DHT22;12364;47.810;8.810;2022-08-04T16:59:52;41.20;28.80
24232;DHT22;12364;47.810;8.810;2022-08-04T17:02:22;41.70;30.00
24232;DHT22;12364;47.810;8.810;2022-08-04T17:04:51;41.20;28.80
24232;DHT22;12364;47.810;8.810;2022-08-04T17:07:52;40.00;30.80
24232;DHT22;12364;47.810;8.810;2022-08-04T17:10:40;38.80;30.50
24232;DHT22;12364;47.810;8.810;2022-08-04T17:13:24;37.90;34.70
24232;DHT22;12364;47.810;8.810;2022-08-04T17:16:12;37.50;31.30
24232;DHT22;12364;47.810;8.810;2022-08-04T17:18:46;37.00;33.10
24232;DHT22;12364;47.810;8.810;2022-08-04T17:21:21;36.80;34.80
24232;DHT22;12364;47.810;8.810;2022-08-04T17:23:56;36.60;31.90
24232;DHT22;12364;47.810;8.810;2022-08-04T17:26:42;36.40;33.90
24232;DHT22;12364;47.810;8.810;2022-08-04T17:29:21;36.30;35.00
24232;DHT22;12364;47.810;8.810;2022-08-04T17:32:14;36.20;36.00
24232;DHT22;12364;47.810;8.810;2022-08-04T17:34:44;36.20;36.30
24232;DHT22;12364;47.810;8.810;2022-08-04T17:37:14;36.20;36.40
24232;DHT22;12364;47.810;8.810;2022-08-04T17:40:05;36.10;34.00
24232;DHT22;12364;47.810;8.810;2022-08-04T17:42:36;36.10;35.10
24232;DHT22;12364;47.810;8.810;2022-08-04T17:45:08;36.00;35.50
24232;DHT22;12364;47.810;8.810;2022-08-04T17:47:55;36.00;36.10
24232;DHT22;12364;47.810;8.810;2022-08-04T17:50:25;36.00;34.10
24232;DHT22;12364;47.810;8.810;2022-08-04T17:55:39;36.00;33.90
24232;DHT22;12364;47.810;8.810;2022-08-04T17:58:19;35.90;34.20
24232;DHT22;12364;47.810;8.810;2022-08-04T18:00:56;35.90;32.90
24232;DHT22;12364;47.810;8.810;2022-08-04T18:03:44;35.80;34.70
24232;DHT22;12364;47.810;8.810;2022-08-04T18:06:20;35.80;36.30
24232;DHT22;12364;47.810;8.810;2022-08-04T18:08:54;35.80;35.90
24232;DHT22;12364;47.810;8.810;2022-08-04T18:11:50;35.80;32.50
24232;DHT22;12364;47.810;8.810;2022-08-04T18:14:17;35.80;34.60
24232;DHT22;12364;47.810;8.810;2022-08-04T18:16:51;35.80;36.60
24232;DHT22;12364;47.810;8.810;2022-08-04T18:19:21;35.70;34.80
24232;DHT22;12364;47.810;8.810;2022-08-04T18:21:48;35.60;36.30
24232;DHT22;12364;47.810;8.810;2022-08-04T18:24:35;35.60;35.40
24232;DHT22;12364;47.810;8.810;2022-08-04T18:27:23;35.50;35.30
24232;DHT22;12364;47.810;8.810;2022-08-04T18:29:51;35.40;40.30
24232;DHT22;12364;47.810;8.810;2022-08-04T18:32:38;35.30;42.40
24232;DHT22;12364;47.810;8.810;2022-08-04T18:35:25;35.10;38.30
24232;DHT22;12364;47.810;8.810;2022-08-04T18:38:14;34.80;38.70
24232;DHT22;12364;47.810;8.810;2022-08-04T18:40:50;34.90;37.10
24232;DHT22;12364;47.810;8.810;2022-08-04T18:43:21;34.80;39.90
24232;DHT22;12364;47.810;8.810;2022-08-04T18:45:56;34.70;43.70
24232;DHT22;12364;47.810;8.810;2022-08-04T18:48:26;34.60;46.20
24232;DHT22;12364;47.810;8.810;2022-08-04T18:51:03;34.60;47.50
24232;DHT22;12364;47.810;8.810;2022-08-04T18:53:49;34.40;48.00
24232;DHT22;12364;47.810;8.810;2022-08-04T18:56:24;34.20;47.40
24232;DHT22;12364;47.810;8.810;2022-08-04T18:58:58;34.00;44.60
24232;DHT22;12364;47.810;8.810;2022-08-04T19:01:26;33.90;46.60
24232;DHT22;12364;47.810;8.810;2022-08-04T19:04:14;33.70;45.70
24232;DHT22;12364;47.810;8.810;2022-08-04T19:07:00;33.60;44.20
24232;DHT22;12364;47.810;8.810;2022-08-04T19:09:47;33.50;43.40
24232;DHT22;12364;47.810;8.810;2022-08-04T19:12:19;33.40;41.90
24232;DHT22;12364;47.810;8.810;2022-08-04T19:15:06;33.30;40.90
24232;DHT22;12364;47.810;8.810;2022-08-04T19:17:37;33.20;41.10
24232;DHT22;12364;47.810;8.810;2022-08-04T19:20:23;33.10;40.60
24232;DHT22;12364;47.810;8.810;2022-08-04T19:22:53;33.10;40.60
24232;DHT22;12364;47.810;8.810;2022-08-04T19:25:40;33.00;42.80
24232;DHT22;12364;47.810;8.810;2022-08-04T19:28:28;32.90;42.90
24232;DHT22;12364;47.810;8.810;2022-08-04T19:31:00;32.90;41.00
24232;DHT22;12364;47.810;8.810;2022-08-04T19:33:27;32.70;40.80
24232;DHT22;12364;47.810;8.810;2022-08-04T19:36:14;32.70;42.00
24232;DHT22;12364;47.810;8.810;2022-08-04T19:38:43;32.60;42.40
24232;DHT22;12364;47.810;8.810;2022-08-04T19:41:10;32.50;41.00
24232;DHT22;12364;47.810;8.810;2022-08-04T19:43:57;32.50;43.50
24232;DHT22;12364;47.810;8.810;2022-08-04T19:46:24;32.30;44.00
24232;DHT22;12364;47.810;8.810;2022-08-04T19:48:54;32.20;43.20
24232;DHT22;12364;47.810;8.810;2022-08-04T19:51:27;32.10;42.90
24232;DHT22;12364;47.810;8.810;2022-08-04T19:53:54;32.00;42.50
24232;DHT22;12364;47.810;8.810;2022-08-04T19:56:37;32.10;42.80
24232;DHT22;12364;47.810;8.810;2022-08-04T19:59:07;32.00;44.40
24232;DHT22;12364;47.810;8.810;2022-08-04T20:01:34;32.00;46.50
24232;DHT22;12364;47.810;8.810;2022-08-04T20:04:11;31.90;46.80
24232;DHT22;12364;47.810;8.810;2022-08-04T20:06:39;31.80;47.00
24232;DHT22;12364;47.810;8.810;2022-08-04T20:09:07;31.60;47.10
24232;DHT22;12364;47.810;8.810;2022-08-04T20:11:53;31.50;46.90
24232;DHT22;12364;47.810;8.810;2022-08-04T20:14:20;31.50;45.90
24232;DHT22;12364;47.810;8.810;2022-08-04T20:17:02;31.40;45.40
24232;DHT22;12364;47.810;8.810;2022-08-04T20:19:36;31.40;45.40
24232;DHT22;12364;47.810;8.810;2022-08-04T20:22:03;31.30;44.90
24232;DHT22;12364;47.810;8.810;2022-08-04T20:24:51;31.30;45.60
24232;DHT22;12364;47.810;8.810;2022-08-04T20:27:36;31.20;45.50
24232;DHT22;12364;47.810;8.810;2022-08-04T20:30:23;31.20;45.60
24232;DHT22;12364;47.810;8.810;2022-08-04T20:32:54;31.10;44.50
24232;DHT22;12364;47.810;8.810;2022-08-04T20:35:21;31.00;44.30
24232;DHT22;12364;47.810;8.810;2022-08-04T20:37:54;31.00;46.10
24232;DHT22;12364;47.810;8.810;2022-08-04T20:40:27;30.90;46.20
24232;DHT22;12364;47.810;8.810;2022-08-04T20:42:56;30.80;47.20
24232;DHT22;12364;47.810;8.810;2022-08-04T20:45:24;30.60;47.50
24232;DHT22;12364;47.810;8.810;2022-08-04T20:48:11;30.50;46.20
24232;DHT22;12364;47.810;8.810;2022-08-04T20:50:38;30.40;46.60
24232;DHT22;12364;47.810;8.810;2022-08-04T20:53:06;30.40;47.40
24232;DHT22;12364;47.810;8.810;2022-08-04T20:55:52;30.20;48.00
24232;DHT22;12364;47.810;8.810;2022-08-04T20:58:22;30.10;48.30
24232;DHT22;12364;47.810;8.810;2022-08-04T21:00:54;30.00;48.10
24232;DHT22;12364;47.810;8.810;2022-08-04T21:03:21;29.90;48.30
24232;DHT22;12364;47.810;8.810;2022-08-04T21:06:08;29.70;48.90
24232;DHT22;12364;47.810;8.810;2022-08-04T21:08:36;29.60;49.10
24232;DHT22;12364;47.810;8.810;2022-08-04T21:11:03;29.60;49.00
24232;DHT22;12364;47.810;8.810;2022-08-04T21:13:34;29.60;49.30
24232;DHT22;12364;47.810;8.810;2022-08-04T21:16:18;29.50;49.80
24232;DHT22;12364;47.810;8.810;2022-08-04T21:19:05;29.50;49.20
24232;DHT22;12364;47.810;8.810;2022-08-04T21:21:39;29.20;49.90
24232;DHT22;12364;47.810;8.810;2022-08-04T21:24:08;29.10;50.10
24232;DHT22;12364;47.810;8.810;2022-08-04T21:26:35;29.00;49.70
24232;DHT22;12364;47.810;8.810;2022-08-04T21:29:03;28.90;50.00
24232;DHT22;12364;47.810;8.810;2022-08-04T21:31:31;29.00;50.10
24232;DHT22;12364;47.810;8.810;2022-08-04T21:34:16;28.90;50.30
24232;DHT22;12364;47.810;8.810;2022-08-04T21:37:03;28.80;50.60
24232;DHT22;12364;47.810;8.810;2022-08-04T21:39:30;28.80;50.50
24232;DHT22;12364;47.810;8.810;2022-08-04T21:41:58;28.80;49.90
24232;DHT22;12364;47.810;8.810;2022-08-04T21:44:45;28.80;50.60
24232;DHT22;12364;47.810;8.810;2022-08-04T21:47:13;28.70;50.40
24232;DHT22;12364;47.810;8.810;2022-08-04T21:49:49;28.60;50.90
24232;DHT22;12364;47.810;8.810;2022-08-04T21:52:23;28.60;50.30
24232;DHT22;12364;47.810;8.810;2022-08-04T21:54:50;28.50;50.40
24232;DHT22;12364;47.810;8.810;2022-08-04T21:57:21;28.50;50.20
24232;DHT22;12364;47.810;8.810;2022-08-04T21:59:51;28.50;50.00
24232;DHT22;12364;47.810;8.810;2022-08-04T22:02:18;28.50;49.90
24232;DHT22;12364;47.810;8.810;2022-08-04T22:04:45;28.50;49.40
24232;DHT22;12364;47.810;8.810;2022-08-04T22:07:14;28.40;49.60
24232;DHT22;12364;47.810;8.810;2022-08-04T22:09:42;28.50;50.60
24232;DHT22;12364;47.810;8.810;2022-08-04T22:12:26;28.50;50.60
24232;DHT22;12364;47.810;8.810;2022-08-04T22:14:56;28.40;50.50
24232;DHT22;12364;47.810;8.810;2022-08-04T22:17:26;28.40;50.30
24232;DHT22;12364;47.810;8.810;2022-08-04T22:20:01;28.40;50.70
24232;DHT22;12364;47.810;8.810;2022-08-04T22:22:32;28.30;51.00
24232;DHT22;12364;47.810;8.810;2022-08-04T22:25:00;28.30;51.00
24232;DHT22;12364;47.810;8.810;2022-08-04T22:27:38;28.20;50.70
24232;DHT22;12364;47.810;8.810;2022-08-04T22:30:27;28.20;51.10
24232;DHT22;12364;47.810;8.810;2022-08-04T22:33:03;28.20;50.40
24232;DHT22;12364;47.810;8.810;2022-08-04T22:35:33;28.10;50.00
24232;DHT22;12364;47.810;8.810;2022-08-04T22:38:16;28.10;50.00
24232;DHT22;12364;47.810;8.810;2022-08-04T22:41:06;28.20;49.80
24232;DHT22;12364;47.810;8.810;2022-08-04T22:43:34;28.20;50.20
24232;DHT22;12364;47.810;8.810;2022-08-04T22:46:04;28.20;51.00
24232;DHT22;12364;47.810;8.810;2022-08-04T22:48:35;28.20;51.80
24232;DHT22;12364;47.810;8.810;2022-08-04T22:51:04;28.10;51.90
24232;DHT22;12364;47.810;8.810;2022-08-04T22:53:33;28.10;51.50
24232;DHT22;12364;47.810;8.810;2022-08-04T22:56:01;28.00;50.60
24232;DHT22;12364;47.810;8.810;2022-08-04T22:58:45;27.90;50.90
